Sikinos — 9HA2865 — position and weather

sailwx.info

Track history (hours):
 
Tides and Currents Weather Stations Pressure Air Temp Water Temp Dewpoint Dewpoint Depression Visibility Wind Speed Wind Dir Waves Ship Positions

Sikinos

Last reported at 2015-Jul-02 11:27 UTC. Time now 2015-Jul-03 02:39 UTC.
Position N 53°20' E 007°11'.

Length 90 m; draft 5.6 m.

Type: Ship (hazmat cat A). MMSI: 256462000.

Date/timePositionNaut miles runAvg speedWind from/ knotsBaromVisibWave heightAir tempDewpointWater temp
2015-Jul-02 11:27N 53°20' E 007°11'5 5.9
2015-Jul-02 10:33N 53°19' E 007°02'9 9.1
2015-Jul-02 09:33N 53°27' E 006°53'1111.1
2015-Jul-02 08:33N 53°34' E 006°39'1111.0
2015-Jul-02 07:33N 53°38' E 006°22'1010.0
2015-Jul-02 06:33N 53°40' E 006°05'1211.6
2015-Jul-02 05:33N 53°38' E 005°46'1212.2
2015-Jul-02 04:33N 53°34' E 005°26'1212.1
2015-Jul-02 03:33N 53°30' E 005°07'1111.3
2015-Jul-02 02:34N 53°26' E 004°49'1010.0
2015-Jul-02 01:33N 53°19' E 004°38'1010.5
2015-Jul-02 00:33N 53°09' E 004°30'1010.3
2015-Jul-01 23:33N 53°00' E 004°22'1010.1
2015-Jul-01 22:33N 52°51' E 004°14'10 9.7
2015-Jul-01 21:33N 52°44' E 004°04'10 9.8
2015-Jul-01 20:33N 52°36' E 003°53'10 9.8
2015-Jul-01 19:33N 52°29' E 003°42'7510.8
2015-Jul-01 12:33N 51°23' E 002°45'10 9.8
2015-Jul-01 11:33N 51°22' E 003°01'7 7.1
2015-Jul-01 10:33N 51°20' E 003°12'0 0.0
2015-Jul-01 01:33N 51°20' E 003°12'0 0.0
2015-Jun-30 23:30N 51°20' E 003°12'0 0.0
2015-Jun-30 22:15N 51°20' E 003°12'0 0.0
2015-Jun-30 21:33N 51°20' E 003°12'0 0.0
2015-Jun-30 00:09N 51°20' E 003°12'0 0.0
2015-Jun-29 23:33N 51°20' E 003°12'0 0.0
2015-Jun-29 19:33N 51°20' E 003°12'0 0.0
2015-Jun-29 10:21N 51°20' E 003°12'0 0.0
2015-Jun-29 02:27N 51°20' E 003°12'1 0.7
2015-Jun-29 00:33N 51°21' E 003°12'1211.7
2015-Jun-28 23:33N 51°21' E 002°53'1010.0
2015-Jun-28 22:34N 51°15' E 002°40'1211.7
2015-Jun-28 21:32N 51°05' E 002°29'6 5.1
2015-Jun-28 20:20N 51°03' E 002°20'0 0.0
2015-Jun-28 09:14N 51°03' E 002°19'1 1.2
2015-Jun-28 08:33N 51°03' E 002°21'1510.8
2015-Jun-28 07:08N 51°03' E 001°56'6 8.6
2015-Jun-28 06:28N 51°03' E 001°47'9 9.6
2015-Jun-28 05:31N 51°09' E 001°36'1111.1
2015-Jun-28 04:34N 51°19' E 001°36'10 9.5
2015-Jun-28 03:33N 51°25' E 001°24'0 0.3
2015-Jun-28 02:34N 51°25' E 001°23'0 0.0
2015-Jun-28 01:33N 51°25' E 001°23'0 0.0
2015-Jun-28 00:33N 51°25' E 001°23'0 0.0
2015-Jun-27 23:33N 51°25' E 001°23'0 0.0
2015-Jun-27 22:33N 51°25' E 001°23'0 0.0
2015-Jun-27 21:33N 51°25' E 001°23'0 0.1
2015-Jun-27 20:33N 51°25' E 001°23'0 0.0
2015-Jun-27 19:33N 51°25' E 001°23'0 0.0
2015-Jun-27 18:33N 51°25' E 001°23'0 0.0
2015-Jun-27 17:33N 51°25' E 001°23'0 0.0
2015-Jun-27 16:33N 51°25' E 001°23'0 0.0
2015-Jun-27 15:33N 51°25' E 001°23'0 0.1
2015-Jun-27 14:34N 51°25' E 001°23'0 0.0
2015-Jun-27 13:33N 51°25' E 001°23'0 0.0
2015-Jun-27 12:33N 51°25' E 001°23'0 0.0
2015-Jun-27 11:33N 51°25' E 001°23'0 0.0
2015-Jun-27 10:34N 51°25' E 001°23'0 0.0
2015-Jun-27 09:33N 51°25' E 001°23'0 0.0
2015-Jun-27 08:33N 51°25' E 001°23'1 1.0
2015-Jun-27 07:34N 51°25' E 001°25'0 0.3
2015-Jun-27 06:34N 51°25' E 001°25'0 0.0
2015-Jun-27 05:33N 51°25' E 001°25'0 0.1
2015-Jun-27 04:33N 51°25' E 001°25'0 0.1
2015-Jun-27 03:33N 51°25' E 001°25'0 0.0
2015-Jun-27 02:34N 51°25' E 001°25'0 0.0
2015-Jun-27 01:33N 51°25' E 001°25'0 0.0
2015-Jun-27 00:34N 51°25' E 001°25'0 0.0
2015-Jun-26 23:33N 51°25' E 001°25'0 0.0
2015-Jun-26 22:34N 51°25' E 001°25'0 0.0
2015-Jun-26 21:33N 51°25' E 001°25'0 0.0
2015-Jun-26 20:33N 51°25' E 001°25'2 2.3
2015-Jun-26 19:33N 51°26' E 001°29'10 9.9
2015-Jun-26 18:33N 51°29' E 001°44'1110.5
2015-Jun-26 17:33N 51°26' E 002°00'1110.9
2015-Jun-26 16:33N 51°21' E 002°15'1110.6
2015-Jun-26 15:33N 51°22' E 002°32'2 1.7
2015-Jun-26 14:32N 51°20' E 002°33'0 0.0
2015-Jun-26 13:32N 51°20' E 002°33'0 0.1
2015-Jun-26 12:32N 51°20' E 002°33'0 0.0
2015-Jun-26 11:04N 51°21' E 002°33'0 0.1
2015-Jun-26 10:17N 51°21' E 002°33'0 0.0
2015-Jun-26 09:28N 51°21' E 002°33'0 0.0
2015-Jun-26 08:32N 51°21' E 002°33'0 0.0
2015-Jun-26 07:29N 51°21' E 002°33'1 1.0
2015-Jun-26 06:34N 51°21' E 002°33'1111.0
2015-Jun-26 05:33N 51°18' E 002°17'1211.9
2015-Jun-26 04:34N 51°12' E 002°00'1211.6
2015-Jun-26 03:33N 51°05' E 001°45'1111.1
2015-Jun-26 02:33N 50°57' E 001°32'1010.4
2015-Jun-26 01:33N 50°48' E 001°24'72 9.0
2015-Jun-25 17:30N 50°35' W 000°28'0 0.0
2015-Jun-25 09:33N 50°35' W 000°28'9 9.1
2015-Jun-25 08:33N 50°43' W 000°23'0 0.1
2015-Jun-25 06:33N 50°43' W 000°23'0 0.0
2015-Jun-25 05:33N 50°43' W 000°23'0 0.1
2015-Jun-25 04:33N 50°43' W 000°23'0 0.0
2015-Jun-25 03:33N 50°43' W 000°23'0 0.0
2015-Jun-25 02:33N 50°43' W 000°23'0 0.0
2015-Jun-25 01:33N 50°43' W 000°23'0 0.0
2015-Jun-25 00:33N 50°43' W 000°23'0 0.0
2015-Jun-24 23:33N 50°43' W 000°23'0 0.0
2015-Jun-24 22:15N 50°43' W 000°23'0 0.1
2015-Jun-24 21:33N 50°43' W 000°23'0 0.0
2015-Jun-24 20:27N 50°43' W 000°23'2 0.7
2015-Jun-24 18:12N 50°42' W 000°25'4 6.7
2015-Jun-24 17:34N 50°38' W 000°27'2210.6
2015-Jun-24 15:27N 50°34' E 000°07'910.3
2015-Jun-24 14:33N 50°36' E 000°21'1010.1
2015-Jun-24 13:33N 50°40' E 000°36'1110.9
2015-Jun-24 12:34N 50°46' E 000°51'1211.9
2015-Jun-24 11:34N 50°53' E 001°06'1312.6
2015-Jun-24 10:34N 51°01' E 001°21'1212.0
2015-Jun-24 09:34N 51°09' E 001°36'1110.7
2015-Jun-24 08:34N 51°16' E 001°48'10 9.8
2015-Jun-24 07:34N 51°24' E 001°58'9 9.2
2015-Jun-24 06:33N 51°22' E 002°13'9 9.1
2015-Jun-24 05:34N 51°22' E 002°27'9 9.3
2015-Jun-24 04:33N 51°23' E 002°42'9 9.4
2015-Jun-24 03:34N 51°24' E 002°57'1010.3
2015-Jun-24 02:33N 51°25' E 003°14'1110.8
2015-Jun-24 01:33N 51°25' E 003°31'3 3.2
2015-Jun-24 00:31N 51°27' E 003°36'0 0.0
2015-Jun-23 23:31N 51°27' E 003°36'0 0.0
2015-Jun-23 22:31N 51°27' E 003°36'0 0.0
2015-Jun-23 21:31N 51°27' E 003°36'0 0.0
2015-Jun-23 20:31N 51°27' E 003°36'0 0.0
2015-Jun-23 19:31N 51°27' E 003°36'0 0.0
2015-Jun-23 19:01N 51°27' E 003°36'206 7.8
2015-Jun-22 16:34N 53°58' E 007°26'10 9.9
2015-Jun-22 15:32N 53°56' E 007°43'10 9.7
2015-Jun-22 14:33N 53°49' E 007°55'8 8.1
2015-Jun-22 13:33N 53°43' E 008°04'8 8.3
2015-Jun-22 12:34N 53°36' E 008°10'2 2.5
2015-Jun-22 11:33N 53°33' E 008°10'  
Track history (hours):
 
Tides and Currents Weather Stations Pressure Air Temp Water Temp Dewpoint Dewpoint Depression Visibility Wind Speed Wind Dir Waves Ship Positions

Sikinos

Last reported at 2015-Jul-02 11:27 UTC. Time now 2015-Jul-03 02:39 UTC.
Position N 53°20' E 007°11'.

Length 90 m; draft 5.6 m.

Type: Ship (hazmat cat A). MMSI: 256462000.

Date/timePositionNaut miles runAvg speedWind from/ knotsBaromVisibWave heightAir tempDewpointWater temp
2015-Jul-02 11:27N 53°20' E 007°11'5 5.9
2015-Jul-02 10:33N 53°19' E 007°02'9 9.1
2015-Jul-02 09:33N 53°27' E 006°53'1111.1
2015-Jul-02 08:33N 53°34' E 006°39'1111.0
2015-Jul-02 07:33N 53°38' E 006°22'1010.0
2015-Jul-02 06:33N 53°40' E 006°05'1211.6
2015-Jul-02 05:33N 53°38' E 005°46'1212.2
2015-Jul-02 04:33N 53°34' E 005°26'1212.1
2015-Jul-02 03:33N 53°30' E 005°07'1111.3
2015-Jul-02 02:34N 53°26' E 004°49'1010.0
2015-Jul-02 01:33N 53°19' E 004°38'1010.5
2015-Jul-02 00:33N 53°09' E 004°30'1010.3
2015-Jul-01 23:33N 53°00' E 004°22'1010.1
2015-Jul-01 22:33N 52°51' E 004°14'10 9.7
2015-Jul-01 21:33N 52°44' E 004°04'10 9.8
2015-Jul-01 20:33N 52°36' E 003°53'10 9.8
2015-Jul-01 19:33N 52°29' E 003°42'7510.8
2015-Jul-01 12:33N 51°23' E 002°45'10 9.8
2015-Jul-01 11:33N 51°22' E 003°01'7 7.1
2015-Jul-01 10:33N 51°20' E 003°12'0 0.0
2015-Jul-01 01:33N 51°20' E 003°12'0 0.0
2015-Jun-30 23:30N 51°20' E 003°12'0 0.0
2015-Jun-30 22:15N 51°20' E 003°12'0 0.0
2015-Jun-30 21:33N 51°20' E 003°12'0 0.0
2015-Jun-30 00:09N 51°20' E 003°12'0 0.0
2015-Jun-29 23:33N 51°20' E 003°12'0 0.0
2015-Jun-29 19:33N 51°20' E 003°12'0 0.0
2015-Jun-29 10:21N 51°20' E 003°12'0 0.0
2015-Jun-29 02:27N 51°20' E 003°12'1 0.7
2015-Jun-29 00:33N 51°21' E 003°12'1211.7
2015-Jun-28 23:33N 51°21' E 002°53'1010.0
2015-Jun-28 22:34N 51°15' E 002°40'1211.7
2015-Jun-28 21:32N 51°05' E 002°29'6 5.1
2015-Jun-28 20:20N 51°03' E 002°20'0 0.0
2015-Jun-28 09:14N 51°03' E 002°19'1 1.2
2015-Jun-28 08:33N 51°03' E 002°21'1510.8
2015-Jun-28 07:08N 51°03' E 001°56'6 8.6
2015-Jun-28 06:28N 51°03' E 001°47'9 9.6
2015-Jun-28 05:31N 51°09' E 001°36'1111.1
2015-Jun-28 04:34N 51°19' E 001°36'10 9.5
2015-Jun-28 03:33N 51°25' E 001°24'0 0.3
2015-Jun-28 02:34N 51°25' E 001°23'0 0.0
2015-Jun-28 01:33N 51°25' E 001°23'0 0.0
2015-Jun-28 00:33N 51°25' E 001°23'0 0.0
2015-Jun-27 23:33N 51°25' E 001°23'0 0.0
2015-Jun-27 22:33N 51°25' E 001°23'0 0.0
2015-Jun-27 21:33N 51°25' E 001°23'0 0.1
2015-Jun-27 20:33N 51°25' E 001°23'0 0.0
2015-Jun-27 19:33N 51°25' E 001°23'0 0.0
2015-Jun-27 18:33N 51°25' E 001°23'0 0.0
2015-Jun-27 17:33N 51°25' E 001°23'0 0.0
2015-Jun-27 16:33N 51°25' E 001°23'0 0.0
2015-Jun-27 15:33N 51°25' E 001°23'0 0.1
2015-Jun-27 14:34N 51°25' E 001°23'0 0.0
2015-Jun-27 13:33N 51°25' E 001°23'0 0.0
2015-Jun-27 12:33N 51°25' E 001°23'0 0.0
2015-Jun-27 11:33N 51°25' E 001°23'0 0.0
2015-Jun-27 10:34N 51°25' E 001°23'0 0.0
2015-Jun-27 09:33N 51°25' E 001°23'0 0.0
2015-Jun-27 08:33N 51°25' E 001°23'1 1.0
2015-Jun-27 07:34N 51°25' E 001°25'0 0.3
2015-Jun-27 06:34N 51°25' E 001°25'0 0.0
2015-Jun-27 05:33N 51°25' E 001°25'0 0.1
2015-Jun-27 04:33N 51°25' E 001°25'0 0.1
2015-Jun-27 03:33N 51°25' E 001°25'0 0.0
2015-Jun-27 02:34N 51°25' E 001°25'0 0.0
2015-Jun-27 01:33N 51°25' E 001°25'0 0.0
2015-Jun-27 00:34N 51°25' E 001°25'0 0.0
2015-Jun-26 23:33N 51°25' E 001°25'0 0.0
2015-Jun-26 22:34N 51°25' E 001°25'0 0.0
2015-Jun-26 21:33N 51°25' E 001°25'0 0.0
2015-Jun-26 20:33N 51°25' E 001°25'2 2.3
2015-Jun-26 19:33N 51°26' E 001°29'10 9.9
2015-Jun-26 18:33N 51°29' E 001°44'1110.5
2015-Jun-26 17:33N 51°26' E 002°00'1110.9
2015-Jun-26 16:33N 51°21' E 002°15'1110.6
2015-Jun-26 15:33N 51°22' E 002°32'2 1.7
2015-Jun-26 14:32N 51°20' E 002°33'0 0.0
2015-Jun-26 13:32N 51°20' E 002°33'0 0.1
2015-Jun-26 12:32N 51°20' E 002°33'0 0.0
2015-Jun-26 11:04N 51°21' E 002°33'0 0.1
2015-Jun-26 10:17N 51°21' E 002°33'0 0.0
2015-Jun-26 09:28N 51°21' E 002°33'0 0.0
2015-Jun-26 08:32N 51°21' E 002°33'0 0.0
2015-Jun-26 07:29N 51°21' E 002°33'1 1.0
2015-Jun-26 06:34N 51°21' E 002°33'1111.0
2015-Jun-26 05:33N 51°18' E 002°17'1211.9
2015-Jun-26 04:34N 51°12' E 002°00'1211.6
2015-Jun-26 03:33N 51°05' E 001°45'1111.1
2015-Jun-26 02:33N 50°57' E 001°32'1010.4
2015-Jun-26 01:33N 50°48' E 001°24'72 9.0
2015-Jun-25 17:30N 50°35' W 000°28'0 0.0
2015-Jun-25 09:33N 50°35' W 000°28'9 9.1
2015-Jun-25 08:33N 50°43' W 000°23'0 0.1
2015-Jun-25 06:33N 50°43' W 000°23'0 0.0
2015-Jun-25 05:33N 50°43' W 000°23'0 0.1
2015-Jun-25 04:33N 50°43' W 000°23'0 0.0
2015-Jun-25 03:33N 50°43' W 000°23'0 0.0
2015-Jun-25 02:33N 50°43' W 000°23'0 0.0
2015-Jun-25 01:33N 50°43' W 000°23'0 0.0
2015-Jun-25 00:33N 50°43' W 000°23'0 0.0
2015-Jun-24 23:33N 50°43' W 000°23'0 0.0
2015-Jun-24 22:15N 50°43' W 000°23'0 0.1
2015-Jun-24 21:33N 50°43' W 000°23'0 0.0
2015-Jun-24 20:27N 50°43' W 000°23'2 0.7
2015-Jun-24 18:12N 50°42' W 000°25'4 6.7
2015-Jun-24 17:34N 50°38' W 000°27'2210.6
2015-Jun-24 15:27N 50°34' E 000°07'910.3
2015-Jun-24 14:33N 50°36' E 000°21'1010.1
2015-Jun-24 13:33N 50°40' E 000°36'1110.9
2015-Jun-24 12:34N 50°46' E 000°51'1211.9
2015-Jun-24 11:34N 50°53' E 001°06'1312.6
2015-Jun-24 10:34N 51°01' E 001°21'1212.0
2015-Jun-24 09:34N 51°09' E 001°36'1110.7
2015-Jun-24 08:34N 51°16' E 001°48'10 9.8
2015-Jun-24 07:34N 51°24' E 001°58'9 9.2
2015-Jun-24 06:33N 51°22' E 002°13'9 9.1
2015-Jun-24 05:34N 51°22' E 002°27'9 9.3
2015-Jun-24 04:33N 51°23' E 002°42'9 9.4
2015-Jun-24 03:34N 51°24' E 002°57'1010.3
2015-Jun-24 02:33N 51°25' E 003°14'1110.8
2015-Jun-24 01:33N 51°25' E 003°31'3 3.2
2015-Jun-24 00:31N 51°27' E 003°36'0 0.0
2015-Jun-23 23:31N 51°27' E 003°36'0 0.0
2015-Jun-23 22:31N 51°27' E 003°36'0 0.0
2015-Jun-23 21:31N 51°27' E 003°36'0 0.0
2015-Jun-23 20:31N 51°27' E 003°36'0 0.0
2015-Jun-23 19:31N 51°27' E 003°36'0 0.0
2015-Jun-23 19:01N 51°27' E 003°36'206 7.8
2015-Jun-22 16:34N 53°58' E 007°26'10 9.9
2015-Jun-22 15:32N 53°56' E 007°43'10 9.7
2015-Jun-22 14:33N 53°49' E 007°55'8 8.1
2015-Jun-22 13:33N 53°43' E 008°04'8 8.3
2015-Jun-22 12:34N 53°36' E 008°10'2 2.5
2015-Jun-22 11:33N 53°33' E 008°10'  

Dump ship's entire track history